createdAt,value
2023-08-14T00:00:51.044Z,100986.38
2023-08-14T00:03:19.542Z,100983.28
2023-08-14T00:05:47.641Z,100983.50
2023-08-14T00:08:15.799Z,100976.72
2023-08-14T00:10:45.169Z,100982.75
2023-08-14T00:13:13.182Z,100970.34
2023-08-14T00:15:41.346Z,100962.69
2023-08-14T00:18:09.749Z,100962.13
2023-08-14T00:20:37.854Z,100954.66
2023-08-14T00:23:05.926Z,100953.22
2023-08-14T00:25:33.967Z,100952.38
2023-08-14T00:28:03.544Z,100947.63
2023-08-14T00:30:31.651Z,100945.56
2023-08-14T00:32:59.763Z,100950.94
2023-08-14T00:35:27.878Z,100948.25
2023-08-14T00:37:56.162Z,100938.78
2023-08-14T00:40:24.325Z,100937.13
2023-08-14T00:42:52.348Z,100924.94
2023-08-14T00:45:24.803Z,100921.22
2023-08-14T00:47:55.456Z,100918.34
2023-08-14T00:50:23.583Z,100930.38
2023-08-14T00:52:52.906Z,100922.94
2023-08-14T00:55:22.852Z,100924.59
2023-08-14T00:57:51.288Z,100923.78
2023-08-14T01:00:19.671Z,100920.88
2023-08-14T01:02:49.473Z,100880.72
2023-08-14T01:05:17.681Z,100889.31
2023-08-14T01:07:45.759Z,100892.00
2023-08-14T01:10:14.013Z,100887.88
2023-08-14T01:12:45.406Z,100882.09
2023-08-14T01:15:14.986Z,100875.69
2023-08-14T01:17:46.514Z,100875.25
2023-08-14T01:20:16.422Z,100886.84
2023-08-14T01:22:47.434Z,100880.22
2023-08-14T01:25:31.574Z,100875.44
2023-08-14T01:27:59.796Z,100881.47
2023-08-14T01:30:27.955Z,100877.09
2023-08-14T01:32:56.116Z,100883.97
2023-08-14T01:35:25.638Z,100881.28
2023-08-14T01:37:57.177Z,100898.84
2023-08-14T01:40:28.255Z,100889.56
2023-08-14T01:43:00.290Z,100875.91
2023-08-14T01:45:29.355Z,100883.78
2023-08-14T01:47:57.535Z,100872.19
2023-08-14T01:50:26.629Z,100874.25
2023-08-14T01:52:54.686Z,100852.72
2023-08-14T01:55:22.927Z,100860.59
2023-08-14T01:57:50.945Z,100852.72
2023-08-14T02:00:20.659Z,100860.78
2023-08-14T02:02:48.957Z,100854.75
2023-08-14T02:05:17.256Z,100851.88
2023-08-14T02:07:45.342Z,100851.44
2023-08-14T02:10:13.619Z,100839.03
2023-08-14T02:12:41.735Z,100845.25
2023-08-14T02:15:10.929Z,100841.91
2023-08-14T02:17:40.395Z,100842.94
2023-08-14T02:20:10.466Z,100846.03
2023-08-14T02:22:38.568Z,100839.38
2023-08-14T02:25:06.994Z,100837.72
2023-08-14T02:27:35.059Z,100825.47
2023-08-14T02:30:04.299Z,100834.81
2023-08-14T02:32:32.335Z,100826.09
2023-08-14T02:35:01.700Z,100814.09
2023-08-14T02:37:29.947Z,100822.34
2023-08-14T02:39:57.991Z,100823.56
2023-08-14T02:42:26.033Z,100810.78
2023-08-14T02:44:55.044Z,100816.78
2023-08-14T02:47:25.759Z,100807.06
2023-08-14T02:49:55.001Z,100812.81
2023-08-14T02:52:24.394Z,100804.13
2023-08-14T02:54:52.600Z,100804.75
2023-08-14T02:57:20.602Z,100802.06
2023-08-14T02:59:48.712Z,100799.56
2023-08-14T03:02:16.948Z,100790.28
2023-08-14T03:04:46.037Z,100791.28
2023-08-14T03:07:14.095Z,100788.78
2023-08-14T03:09:43.587Z,100781.56
2023-08-14T03:12:11.692Z,100792.13
2023-08-14T03:14:39.822Z,100778.47
2023-08-14T03:17:07.875Z,100780.53
2023-08-14T03:19:36.066Z,100784.25
2023-08-14T03:22:04.239Z,100773.50
2023-08-14T03:24:32.324Z,100761.91
2023-08-14T03:27:01.725Z,100762.72
2023-08-14T03:29:29.713Z,100782.38
2023-08-14T03:31:57.808Z,100761.69
2023-08-14T03:34:25.904Z,100770.59
2023-08-14T03:36:55.354Z,100759.00
2023-08-14T03:39:24.276Z,100759.00
2023-08-14T03:41:52.734Z,100754.03
2023-08-14T03:44:22.243Z,100754.66
2023-08-14T03:46:50.302Z,100746.00
2023-08-14T03:49:18.347Z,100737.31
2023-08-14T03:51:46.409Z,100740.63
2023-08-14T03:54:14.723Z,100730.91
2023-08-14T03:56:42.825Z,100728.44
2023-08-14T03:59:12.828Z,100708.38
2023-08-14T04:01:44.495Z,100718.09
2023-08-14T04:04:12.794Z,100708.22
2023-08-14T04:06:40.857Z,100707.16
2023-08-14T04:09:10.482Z,100701.13
2023-08-14T04:11:38.604Z,100694.09
2023-08-14T04:14:06.721Z,100701.34
2023-08-14T04:16:45.226Z,100690.78
2023-08-14T04:19:16.290Z,100693.25
2023-08-14T04:21:44.520Z,100699.03
2023-08-14T04:24:12.785Z,100701.97
2023-08-14T04:26:41.181Z,100698.44
2023-08-14T04:29:10.242Z,100689.09
2023-08-14T04:31:38.732Z,100680.44
2023-08-14T04:34:07.205Z,100688.72
2023-08-14T04:36:38.093Z,100682.94
2023-08-14T04:39:06.588Z,100681.69
2023-08-14T04:41:34.691Z,100687.50
2023-08-14T04:44:03.081Z,100674.06
2023-08-14T04:46:41.136Z,100667.03
2023-08-14T04:49:13.880Z,100669.28
2023-08-14T04:51:43.895Z,100662.66
2023-08-14T04:54:11.944Z,100656.25
2023-08-14T04:56:39.984Z,100669.28
2023-08-14T04:59:08.109Z,100656.88
2023-08-14T05:01:36.397Z,100664.34
2023-08-14T05:04:05.529Z,100660.59
2023-08-14T05:06:33.739Z,100665.56
2023-08-14T05:09:16.000Z,100666.19
2023-08-14T05:11:52.403Z,100661.84
2023-08-14T05:14:20.501Z,100661.19
2023-08-14T05:16:48.821Z,100665.34
2023-08-14T05:19:16.975Z,100658.94
2023-08-14T05:21:46.366Z,100653.75
2023-08-14T05:24:16.139Z,100642.38
2023-08-14T05:26:44.178Z,100651.06
2023-08-14T05:29:12.339Z,100642.81
2023-08-14T05:31:40.405Z,100640.31
2023-08-14T05:34:08.439Z,100637.44
2023-08-14T05:36:36.564Z,100637.22
2023-08-14T05:39:05.049Z,100630.78
2023-08-14T05:41:34.422Z,100635.56
2023-08-14T05:44:02.478Z,100625.81
2023-08-14T05:46:30.489Z,100646.94
2023-08-14T05:48:58.549Z,100641.13
2023-08-14T05:51:26.676Z,100639.06
2023-08-14T05:53:54.700Z,100635.94
2023-08-14T05:56:22.759Z,100628.50
2023-08-14T05:58:52.199Z,100632.84
2023-08-14T06:01:20.445Z,100625.59
2023-08-14T06:03:48.932Z,100624.34
2023-08-14T06:06:17.089Z,100632.81
2023-08-14T06:08:45.074Z,100628.69
2023-08-14T06:11:13.139Z,100628.25
2023-08-14T06:13:41.163Z,100620.81
2023-08-14T06:16:10.624Z,100627.41
2023-08-14T06:18:38.697Z,100622.66
2023-08-14T06:21:06.817Z,100615.19
2023-08-14T06:23:34.867Z,100619.53
2023-08-14T06:26:03.102Z,100620.13
2023-08-14T06:28:31.066Z,100612.88
2023-08-14T06:31:02.824Z,100620.75
2023-08-14T06:33:32.932Z,100609.56
2023-08-14T06:36:01.213Z,100608.34
2023-08-14T06:38:29.612Z,100596.31
2023-08-14T06:40:57.714Z,100601.28
2023-08-14T06:43:25.704Z,100600.44
2023-08-14T06:45:53.762Z,100598.38
2023-08-14T06:48:21.733Z,100578.69
2023-08-14T06:50:51.317Z,100582.66
2023-08-14T06:53:19.445Z,100586.38
2023-08-14T06:55:48.652Z,100583.69
2023-08-14T06:58:16.712Z,100579.13
2023-08-14T07:00:44.851Z,100575.78
2023-08-14T07:03:12.963Z,100571.84
2023-08-14T07:05:41.151Z,100573.50
2023-08-14T07:08:10.631Z,100578.06
2023-08-14T07:10:38.693Z,100566.47
2023-08-14T07:13:07.857Z,100573.88
2023-08-14T07:15:37.373Z,100568.28
2023-08-14T07:18:07.691Z,100568.47
2023-08-14T07:20:35.789Z,100563.28
2023-08-14T07:23:03.946Z,100567.19
2023-08-14T07:25:33.404Z,100561.84
2023-08-14T07:28:01.513Z,100557.44
2023-08-14T07:30:29.518Z,100559.09
2023-08-14T07:32:57.714Z,100560.13
2023-08-14T07:35:25.744Z,100551.69
2023-08-14T07:37:53.805Z,100546.66
2023-08-14T07:40:21.889Z,100550.63
2023-08-14T07:42:51.296Z,100547.34
2023-08-14T07:45:20.515Z,100556.41
2023-08-14T07:47:48.650Z,100551.03
2023-08-14T07:50:16.815Z,100537.31
2023-08-14T07:52:44.829Z,100543.06
2023-08-14T07:55:12.855Z,100528.97
2023-08-14T07:57:46.296Z,100518.75
2023-08-14T08:00:16.785Z,100518.50
2023-08-14T08:02:44.978Z,100528.59
2023-08-14T08:05:13.104Z,100519.75
2023-08-14T08:07:41.315Z,100532.28
2023-08-14T08:10:09.664Z,100537.84
2023-08-14T08:12:37.820Z,100533.13
2023-08-14T08:15:06.974Z,100532.06
2023-08-14T08:17:36.490Z,100546.97
2023-08-14T08:20:06.005Z,100538.66
2023-08-14T08:22:34.178Z,100547.16
2023-08-14T08:25:02.327Z,100539.47
2023-08-14T08:27:30.474Z,100541.91
2023-08-14T08:29:58.654Z,100538.78
2023-08-14T08:32:28.464Z,100551.03
2023-08-14T08:35:00.396Z,100541.06
2023-08-14T08:37:28.505Z,100543.31
2023-08-14T08:39:56.635Z,100546.63
2023-08-14T08:42:24.895Z,100531.94
2023-08-14T08:44:53.149Z,100540.75
2023-08-14T08:47:24.031Z,100540.19
2023-08-14T08:49:52.151Z,100542.00
2023-08-14T08:52:21.741Z,100555.69
2023-08-14T08:54:50.127Z,100577.50
2023-08-14T08:57:18.328Z,100564.47
2023-08-14T08:59:46.514Z,100584.66
2023-08-14T09:02:14.663Z,100595.31
2023-08-14T09:04:42.857Z,100588.31
2023-08-14T09:07:11.049Z,100592.72
2023-08-14T09:09:40.570Z,100588.78
2023-08-14T09:12:08.907Z,100596.31
2023-08-14T09:14:37.020Z,100589.19
2023-08-14T09:17:05.215Z,100595.41
2023-08-14T09:19:33.248Z,100594.47
2023-08-14T09:22:01.276Z,100606.47
2023-08-14T09:24:29.382Z,100606.72
2023-08-14T09:26:58.725Z,100619.81
2023-08-14T09:29:26.789Z,100589.84
2023-08-14T09:31:55.024Z,100620.00
2023-08-14T09:34:23.218Z,100614.25
2023-08-14T09:36:51.329Z,100624.88
2023-08-14T09:39:19.503Z,100639.88
2023-08-14T09:41:48.679Z,100622.66
2023-08-14T09:44:20.509Z,100624.16
2023-08-14T09:46:50.627Z,100630.72
2023-08-14T09:49:19.066Z,100622.66
2023-08-14T09:51:56.147Z,100622.22
2023-08-14T09:54:32.788Z,100635.44
2023-08-14T09:59:37.956Z,100646.53
2023-08-14T10:02:07.224Z,100655.25
2023-08-14T10:04:35.335Z,100651.59
2023-08-14T10:07:03.689Z,100653.88
2023-08-14T10:09:31.861Z,100661.97
2023-08-14T10:12:02.135Z,100659.97
2023-08-14T10:14:30.285Z,100677.34
2023-08-14T10:17:00.538Z,100684.34
2023-08-14T10:19:30.260Z,100676.09
2023-08-14T10:21:58.385Z,100694.16
2023-08-14T10:24:28.831Z,100703.06
2023-08-14T10:26:57.770Z,100715.47
2023-08-14T10:29:25.876Z,100714.63
2023-08-14T10:31:54.045Z,100709.50
2023-08-14T10:34:24.457Z,100747.44
2023-08-14T10:36:53.116Z,100749.53
2023-08-14T10:39:21.245Z,100743.31
2023-08-14T10:41:49.438Z,100743.81
2023-08-14T10:44:17.529Z,100762.66
2023-08-14T10:46:46.550Z,100774.03
2023-08-14T10:49:15.073Z,100781.09
2023-08-14T10:51:44.915Z,100783.97
2023-08-14T10:54:14.108Z,100795.56
2023-08-14T10:56:44.307Z,100785.19
2023-08-14T10:59:23.660Z,100791.78
2023-08-14T11:01:53.439Z,100793.44
2023-08-14T11:04:21.715Z,100812.31
2023-08-14T11:07:09.961Z,100807.97
2023-08-14T11:09:38.860Z,100805.28
2023-08-14T11:12:07.938Z,100822.03
2023-08-14T11:14:40.148Z,100814.63
2023-08-14T11:17:09.217Z,100831.44
2023-08-14T11:19:37.396Z,100832.81
2023-08-14T11:22:06.959Z,100824.75
2023-08-14T11:24:35.145Z,100843.63
2023-08-14T11:27:03.399Z,100838.59
2023-08-14T11:29:33.066Z,100850.25
2023-08-14T11:32:02.308Z,100855.00
2023-08-14T11:34:33.390Z,100838.41
2023-08-14T11:39:34.821Z,100841.13
2023-08-14T11:42:04.511Z,100867.38
2023-08-14T11:44:34.711Z,100864.03
2023-08-14T11:47:04.053Z,100877.50
2023-08-14T11:49:33.585Z,100879.63
2023-08-14T11:52:04.241Z,100895.19
2023-08-14T11:54:34.263Z,100890.03
2023-08-14T11:57:03.768Z,100888.78
2023-08-14T11:59:31.977Z,100899.97
2023-08-14T12:02:00.055Z,100899.34
2023-08-14T12:04:28.165Z,100900.16
2023-08-14T12:06:56.550Z,100921.16
2023-08-14T12:09:27.889Z,100910.19
2023-08-14T12:11:57.517Z,100922.16
2023-08-14T12:14:25.561Z,100923.22
2023-08-14T12:16:53.730Z,100941.06
2023-08-14T12:19:22.390Z,100928.63
2023-08-14T12:21:57.910Z,100931.16
2023-08-14T12:24:26.241Z,100941.09
2023-08-14T12:26:55.328Z,100943.59
2023-08-14T12:29:24.879Z,100944.84
2023-08-14T12:31:53.888Z,100964.34
2023-08-14T12:34:22.819Z,100956.69
2023-08-14T12:36:50.899Z,100959.78
2023-08-14T12:39:19.012Z,100976.38
2023-08-14T12:41:47.143Z,100967.66
2023-08-14T12:44:15.491Z,100984.88
2023-08-14T12:46:45.000Z,100977.00
2023-08-14T12:49:13.102Z,100987.81
2023-08-14T12:51:42.719Z,100985.91
2023-08-14T12:54:12.079Z,100992.38
2023-08-14T12:56:40.797Z,100993.59
2023-08-14T12:59:09.625Z,100993.84
2023-08-14T13:01:38.066Z,100998.19
2023-08-14T13:04:08.058Z,101000.44
2023-08-14T13:06:36.136Z,101006.44
2023-08-14T13:09:04.285Z,101014.94
2023-08-14T13:11:32.422Z,101016.19
2023-08-14T13:14:00.496Z,101013.06
2023-08-14T13:16:28.763Z,101013.25
2023-08-14T13:18:56.904Z,101009.72
2023-08-14T13:21:26.920Z,101020.94
2023-08-14T13:23:54.992Z,101029.69
2023-08-14T13:26:27.103Z,101030.34
2023-08-14T13:28:56.419Z,101040.91
2023-08-14T13:31:24.512Z,101045.28
2023-08-14T13:33:52.813Z,101041.75
2023-08-14T13:36:20.985Z,101034.91
2023-08-14T13:38:50.401Z,101052.09
2023-08-14T13:41:19.024Z,101041.53
2023-08-14T13:43:47.901Z,101040.06
2023-08-14T13:46:16.084Z,101051.03
2023-08-14T13:48:45.739Z,101051.88
2023-08-14T13:51:14.292Z,101049.19
2023-08-14T13:53:42.382Z,101056.03
2023-08-14T13:56:11.767Z,101060.78
2023-08-14T13:58:39.839Z,101066.38
2023-08-14T14:01:08.533Z,101070.91
2023-08-14T14:03:36.556Z,101065.91
2023-08-14T14:06:04.695Z,101070.47
2023-08-14T14:08:33.027Z,101073.41
2023-08-14T14:11:01.188Z,101072.97
2023-08-14T14:13:31.939Z,101070.88
2023-08-14T14:16:00.152Z,101076.69
2023-08-14T14:18:28.299Z,101070.91
2023-08-14T14:20:56.468Z,101071.34
2023-08-14T14:23:24.729Z,101078.56
2023-08-14T14:25:52.930Z,101085.88
2023-08-14T14:28:21.250Z,101088.75
2023-08-14T14:30:50.921Z,101095.81
2023-08-14T14:33:18.985Z,101076.72
2023-08-14T14:35:47.029Z,101082.91
2023-08-14T14:38:15.194Z,101091.25
2023-08-14T14:40:43.217Z,101092.91
2023-08-14T14:43:11.432Z,101097.06
2023-08-14T14:45:39.508Z,101085.06
2023-08-14T14:48:09.191Z,101101.63
2023-08-14T14:50:37.161Z,101105.38
2023-08-14T14:53:05.566Z,101099.97
2023-08-14T14:55:33.963Z,101103.28
2023-08-14T14:58:02.069Z,101111.59
2023-08-14T15:00:30.153Z,101112.44
2023-08-14T15:02:58.363Z,101117.03
2023-08-14T15:05:29.543Z,101124.31
2023-08-14T15:07:57.944Z,101122.44
2023-08-14T15:10:26.051Z,101117.28
2023-08-14T15:12:54.249Z,101124.34
2023-08-14T15:15:23.076Z,101121.63
2023-08-14T15:17:51.381Z,101122.47
2023-08-14T15:20:19.918Z,101127.03
2023-08-14T15:22:49.388Z,101121.63
2023-08-14T15:25:19.754Z,101126.63
2023-08-14T15:27:47.901Z,101125.72
2023-08-14T15:30:17.502Z,101128.28
2023-08-14T15:32:48.091Z,101132.66
2023-08-14T15:35:16.945Z,101119.81
2023-08-14T15:37:45.147Z,101131.47
2023-08-14T15:40:15.065Z,101131.88
2023-08-14T15:42:43.124Z,101134.63
2023-08-14T15:45:14.264Z,101142.91
2023-08-14T15:47:43.285Z,101133.56
2023-08-14T15:50:11.719Z,101141.16
2023-08-14T15:52:39.816Z,101140.31
2023-08-14T15:55:09.042Z,101137.34
2023-08-14T15:57:38.469Z,101140.19
2023-08-14T16:00:11.155Z,101143.22
2023-08-14T16:02:41.232Z,101134.50
2023-08-14T16:05:09.894Z,101145.28
2023-08-14T16:07:38.413Z,101135.81
2023-08-14T16:10:06.890Z,101148.50
2023-08-14T16:12:34.850Z,101147.06
2023-08-14T16:15:05.133Z,101148.16
2023-08-14T16:17:33.162Z,101163.47
2023-08-14T16:20:01.204Z,101149.47
2023-08-14T16:22:29.258Z,101149.25
2023-08-14T16:24:57.248Z,101154.25
2023-08-14T16:27:25.276Z,101152.56
2023-08-14T16:29:53.247Z,101157.34
2023-08-14T16:32:22.620Z,101159.44
2023-08-14T16:34:50.619Z,101161.91
2023-08-14T16:37:19.653Z,101160.88
2023-08-14T16:39:48.385Z,101151.16
2023-08-14T16:42:16.394Z,101160.28
2023-08-14T16:44:44.925Z,101164.63
2023-08-14T16:47:13.831Z,101155.66
2023-08-14T16:49:43.343Z,101160.94
2023-08-14T16:52:11.380Z,101157.41
2023-08-14T16:54:39.505Z,101165.72
2023-08-14T16:57:07.837Z,101160.75
2023-08-14T16:59:35.850Z,101161.94
2023-08-14T17:02:05.290Z,101177.44
2023-08-14T17:04:33.418Z,101172.63
2023-08-14T17:07:04.153Z,101178.41
2023-08-14T17:09:32.230Z,101169.00
2023-08-14T17:12:00.254Z,101164.78
2023-08-14T17:14:28.435Z,101177.19
2023-08-14T17:17:00.031Z,101177.59
2023-08-14T17:19:28.547Z,101174.13
2023-08-14T17:21:56.520Z,101179.63
2023-08-14T17:24:25.994Z,101175.88
2023-08-14T17:26:53.988Z,101164.13
2023-08-14T17:29:22.506Z,101187.38
2023-08-14T17:31:51.522Z,101184.09
2023-08-14T17:34:19.552Z,101180.38
2023-08-14T17:36:48.273Z,101182.59
2023-08-14T17:39:16.407Z,101186.47
2023-08-14T17:41:45.872Z,101188.84
2023-08-14T17:44:15.355Z,101204.78
2023-08-14T17:46:43.328Z,101204.81
2023-08-14T17:49:11.379Z,101206.28
2023-08-14T17:51:39.355Z,101194.13
2023-08-14T17:54:07.411Z,101202.63
2023-08-14T17:56:35.429Z,101200.94
2023-08-14T17:59:05.186Z,101213.16
2023-08-14T18:01:33.943Z,101218.69
2023-08-14T18:04:02.155Z,101212.81
2023-08-14T18:06:30.243Z,101213.16
2023-08-14T18:08:58.229Z,101212.47
2023-08-14T18:11:26.297Z,101215.81
2023-08-14T18:13:54.559Z,101225.97
2023-08-14T18:16:23.995Z,101223.50
2023-08-14T18:18:58.147Z,101227.69
2023-08-14T18:21:36.976Z,101235.34
2023-08-14T18:24:05.605Z,101237.16
2023-08-14T18:26:33.621Z,101240.38
2023-08-14T18:29:02.090Z,101234.13
2023-08-14T18:31:31.554Z,101244.00
2023-08-14T18:33:59.571Z,101240.66
2023-08-14T18:36:29.401Z,101236.06
2023-08-14T18:38:57.512Z,101248.91
2023-08-14T18:41:25.555Z,101239.97
2023-08-14T18:43:53.560Z,101252.94
2023-08-14T18:46:21.870Z,101241.09
2023-08-14T18:48:51.362Z,101257.19
2023-08-14T18:51:19.369Z,101251.28
2023-08-14T18:53:48.452Z,101251.88
2023-08-14T18:56:16.486Z,101251.81
2023-08-14T18:58:47.389Z,101260.28
2023-08-14T19:01:15.423Z,101256.31
2023-08-14T19:03:43.535Z,101255.91
2023-08-14T19:06:13.047Z,101255.28
2023-08-14T19:08:41.125Z,101271.22
2023-08-14T19:11:09.080Z,101265.47
2023-08-14T19:13:37.965Z,101265.47
2023-08-14T19:16:06.380Z,101272.72
2023-08-14T19:18:34.532Z,101273.72
2023-08-14T19:21:03.329Z,101274.13
2023-08-14T19:23:32.953Z,101278.22
2023-08-14T19:26:06.436Z,101277.75
2023-08-14T19:28:40.161Z,101279.59
2023-08-14T19:31:09.104Z,101285.16
2023-08-14T19:33:37.191Z,101289.38
2023-08-14T19:36:05.643Z,101284.00
2023-08-14T19:38:35.087Z,101287.69
2023-08-14T19:41:03.084Z,101292.41
2023-08-14T19:43:31.098Z,101294.66
2023-08-14T19:45:59.940Z,101298.38
2023-08-14T19:48:27.928Z,101295.22
2023-08-14T19:50:56.007Z,101308.00
2023-08-14T19:53:23.978Z,101299.03
2023-08-14T19:55:53.956Z,101301.47
2023-08-14T19:58:23.450Z,101309.28
2023-08-14T20:00:51.790Z,101306.13
2023-08-14T20:03:19.903Z,101309.22
2023-08-14T20:05:48.966Z,101315.34
2023-08-14T20:08:17.119Z,101322.28
2023-08-14T20:10:45.185Z,101327.03
2023-08-14T20:13:14.699Z,101325.19
2023-08-14T20:15:44.628Z,101326.47
2023-08-14T20:18:12.953Z,101328.56
2023-08-14T20:20:41.283Z,101326.53
2023-08-14T20:23:09.349Z,101328.88
2023-08-14T20:25:38.141Z,101328.88
2023-08-14T20:28:07.100Z,101327.38
2023-08-14T20:30:40.152Z,101334.44
2023-08-14T20:33:08.457Z,101334.59
2023-08-14T20:35:40.557Z,101334.16
2023-08-14T20:38:08.724Z,101338.06
2023-08-14T20:40:37.142Z,101342.41
2023-08-14T20:43:10.903Z,101335.53
2023-08-14T20:45:40.716Z,101334.25
2023-08-14T20:48:09.321Z,101340.47
2023-08-14T20:50:37.937Z,101343.78
2023-08-14T20:53:06.078Z,101348.16
2023-08-14T20:55:34.211Z,101348.81
2023-08-14T20:58:02.262Z,101344.09
2023-08-14T21:00:30.274Z,101344.63
2023-08-14T21:02:59.732Z,101345.84
2023-08-14T21:05:27.785Z,101350.84
2023-08-14T21:07:55.817Z,101354.19
2023-08-14T21:10:23.787Z,101342.59
2023-08-14T21:12:51.854Z,101349.81
2023-08-14T21:15:19.853Z,101343.44
2023-08-14T21:17:47.977Z,101350.47
2023-08-14T21:20:17.411Z,101344.63
2023-08-14T21:22:46.171Z,101347.53
2023-08-14T21:25:15.507Z,101346.28
2023-08-14T21:27:43.579Z,101338.06
2023-08-14T21:30:12.838Z,101349.66
2023-08-14T21:32:40.928Z,101352.16
2023-08-14T21:35:09.792Z,101352.78
2023-08-14T21:37:40.302Z,101357.13
2023-08-14T21:40:09.642Z,101356.38
2023-08-14T21:42:37.652Z,101357.31
2023-08-14T21:45:06.196Z,101371.31
2023-08-14T21:47:34.211Z,101371.97
2023-08-14T21:50:02.473Z,101370.94
2023-08-14T21:52:31.328Z,101366.84
2023-08-14T21:55:00.740Z,101368.31
2023-08-14T21:57:28.726Z,101372.47
2023-08-14T21:59:56.744Z,101377.84
2023-08-14T22:02:24.766Z,101369.16
2023-08-14T22:04:52.845Z,101376.19
2023-08-14T22:07:21.009Z,101374.97
2023-08-14T22:09:49.245Z,101380.47
2023-08-14T22:12:18.574Z,101383.81
2023-08-14T22:14:46.705Z,101387.16
2023-08-14T22:17:14.646Z,101386.25
2023-08-14T22:19:42.668Z,101385.75
2023-08-14T22:22:10.702Z,101385.56
2023-08-14T22:24:41.325Z,101387.91
2023-08-14T22:27:09.944Z,101382.88
2023-08-14T22:29:39.334Z,101396.91
2023-08-14T22:32:07.333Z,101392.16
2023-08-14T22:34:37.442Z,101394.31
2023-08-14T22:37:05.533Z,101394.94
2023-08-14T22:39:33.558Z,101396.63
2023-08-14T22:42:01.567Z,101394.59
2023-08-14T22:44:29.563Z,101402.00
2023-08-14T22:46:58.903Z,101400.97
2023-08-14T22:49:26.890Z,101406.00
2023-08-14T22:51:54.865Z,101408.03
2023-08-14T22:54:23.024Z,101407.03
2023-08-14T22:56:50.994Z,101408.22
2023-08-14T22:59:19.033Z,101402.41
2023-08-14T23:01:47.084Z,101410.63
2023-08-14T23:04:16.524Z,101423.94
2023-08-14T23:06:44.584Z,101412.66
2023-08-14T23:09:12.582Z,101414.69
2023-08-14T23:11:40.564Z,101413.97
2023-08-14T23:14:08.805Z,101417.13
2023-08-14T23:16:37.198Z,101418.91
2023-08-14T23:19:05.383Z,101417.22
2023-08-14T23:21:34.730Z,101419.00
2023-08-14T23:24:02.773Z,101420.41
2023-08-14T23:26:30.736Z,101421.22
2023-08-14T23:28:58.761Z,101421.69
2023-08-14T23:31:26.843Z,101424.00
2023-08-14T23:33:54.934Z,101421.84
2023-08-14T23:36:22.974Z,101420.41
2023-08-14T23:38:52.319Z,101415.00
2023-08-14T23:41:20.294Z,101424.75
2023-08-14T23:43:48.241Z,101427.44
2023-08-14T23:46:16.252Z,101421.75
2023-08-14T23:48:44.253Z,101423.16
2023-08-14T23:51:12.557Z,101424.84
2023-08-14T23:53:40.571Z,101422.44
2023-08-14T23:56:10.086Z,101422.06
2023-08-14T23:58:38.083Z,101417.97
